createdAt,value
2023-01-29T00:09:08.128Z,3.97
2023-01-29T00:19:10.912Z,4.10
2023-01-29T00:29:13.591Z,3.80
2023-01-29T00:39:16.091Z,4.20
2023-01-29T00:49:18.552Z,4.63
2023-01-29T00:59:20.986Z,4.40
2023-01-29T01:09:41.957Z,3.97
2023-01-29T01:19:44.855Z,4.10
2023-01-29T01:29:47.731Z,4.63
2023-01-29T01:39:50.640Z,4.40
2023-01-29T01:49:54.721Z,3.93
2023-01-29T02:00:10.210Z,3.75
2023-01-29T02:10:22.731Z,3.50
2023-01-29T02:20:31.947Z,3.87
2023-01-29T02:30:55.810Z,3.67
2023-01-29T02:41:04.642Z,3.97
2023-01-29T02:51:23.268Z,3.57
2023-01-29T03:01:35.985Z,3.47
2023-01-29T03:11:42.723Z,3.47
2023-01-29T03:21:51.406Z,3.23
2023-01-29T03:32:08.514Z,2.50
2023-01-29T03:42:30.035Z,3.33
2023-01-29T03:52:55.949Z,2.83
2023-01-29T04:03:07.898Z,2.40
2023-01-29T04:13:15.938Z,2.90
2023-01-29T04:23:26.446Z,2.90
2023-01-29T04:33:48.187Z,3.07
2023-01-29T04:44:05.928Z,2.33
2023-01-29T04:54:19.907Z,2.83
2023-01-29T05:04:24.670Z,2.63
2023-01-29T05:14:30.499Z,2.40
2023-01-29T05:24:33.070Z,2.78
2023-01-29T05:34:35.598Z,3.20
2023-01-29T05:44:38.034Z,2.50
2023-01-29T05:54:40.578Z,3.17
2023-01-29T06:04:43.004Z,3.27
2023-01-29T06:14:45.454Z,3.03
2023-01-29T06:24:47.878Z,3.38
2023-01-29T06:34:50.389Z,3.17
2023-01-29T06:44:52.891Z,2.57
2023-01-29T06:54:56.303Z,2.90
2023-01-29T07:04:58.780Z,2.58
2023-01-29T07:15:01.372Z,13.83
2023-01-29T07:25:04.401Z,4.07
2023-01-29T07:35:08.007Z,4.10
2023-01-29T07:45:11.391Z,4.90
2023-01-29T07:55:13.888Z,3.40
2023-01-29T08:05:16.578Z,3.00
2023-01-29T08:15:19.146Z,2.90
2023-01-29T08:25:21.635Z,3.13
2023-01-29T08:35:24.865Z,4.30
2023-01-29T08:45:27.400Z,2.70
2023-01-29T08:55:30.145Z,3.07
2023-01-29T09:05:32.662Z,2.93
2023-01-29T09:15:35.307Z,3.15
2023-01-29T09:25:38.311Z,4.07
2023-01-29T09:35:42.472Z,3.57
2023-01-29T09:46:13.472Z,3.35
2023-01-29T09:56:28.818Z,4.60
2023-01-29T10:07:03.810Z,3.77
2023-01-29T10:17:06.568Z,5.10
2023-01-29T10:27:15.587Z,4.88
2023-01-29T10:37:24.795Z,4.97
2023-01-29T10:47:56.894Z,4.93
2023-01-29T10:58:32.516Z,7.03
2023-01-29T11:08:57.463Z,4.37
2023-01-29T11:19:01.671Z,4.80
2023-01-29T11:29:04.223Z,4.82
2023-01-29T11:39:23.975Z,4.40
2023-01-29T11:49:33.833Z,4.70
2023-01-29T11:59:39.485Z,4.70
2023-01-29T12:09:51.550Z,7.10
2023-01-29T12:20:07.343Z,4.50
2023-01-29T12:30:31.709Z,6.47
2023-01-29T12:40:48.887Z,4.13
2023-01-29T12:50:53.886Z,4.37
2023-01-29T13:01:03.255Z,5.73
2023-01-29T13:11:39.663Z,5.45
2023-01-29T13:21:44.666Z,4.25
2023-01-29T13:31:49.939Z,7.67
2023-01-29T13:41:53.736Z,6.27
2023-01-29T13:51:57.577Z,3.85
2023-01-29T14:02:02.765Z,5.50
2023-01-29T14:12:25.562Z,5.30
2023-01-29T14:22:29.786Z,4.70
2023-01-29T14:32:32.804Z,4.43
2023-01-29T14:43:07.865Z,4.10
2023-01-29T14:53:40.347Z,4.28
2023-01-29T15:03:58.345Z,4.18
2023-01-29T15:14:16.789Z,5.73
2023-01-29T15:24:19.339Z,5.73
2023-01-29T15:34:22.301Z,6.25
2023-01-29T15:44:25.141Z,7.20
2023-01-29T15:54:31.767Z,13.13
2023-01-29T16:04:34.573Z,7.80
2023-01-29T16:14:37.225Z,6.43
2023-01-29T16:24:39.991Z,7.23
2023-01-29T16:34:45.582Z,7.90
2023-01-29T16:45:04.357Z,17.27
2023-01-29T16:55:13.278Z,30.27
2023-01-29T17:05:30.951Z,12.63
2023-01-29T17:15:46.184Z,16.48
2023-01-29T17:25:49.642Z,11.87
2023-01-29T17:35:52.895Z,7.37
2023-01-29T17:45:57.144Z,17.13
2023-01-29T17:55:59.972Z,6.83
2023-01-29T18:06:03.286Z,10.20
2023-01-29T18:16:06.443Z,7.22
2023-01-29T18:26:12.669Z,11.15
2023-01-29T18:36:15.530Z,12.77
2023-01-29T18:46:18.813Z,6.93
2023-01-29T18:56:22.269Z,7.35
2023-01-29T19:06:25.294Z,11.43
2023-01-29T19:16:28.157Z,10.03
2023-01-29T19:26:34.090Z,10.27
2023-01-29T19:36:37.071Z,9.90
2023-01-29T19:46:39.896Z,12.40
2023-01-29T19:56:42.670Z,9.77
2023-01-29T20:06:45.143Z,10.02
2023-01-29T20:16:48.003Z,9.87
2023-01-29T20:26:50.804Z,6.03
2023-01-29T20:36:53.920Z,8.23
2023-01-29T20:47:01.872Z,8.77
2023-01-29T20:57:04.653Z,13.33
2023-01-29T21:07:07.483Z,14.88
2023-01-29T21:17:10.654Z,11.47
2023-01-29T21:27:13.405Z,8.50
2023-01-29T21:37:16.071Z,8.57
2023-01-29T21:47:18.965Z,12.18
2023-01-29T21:57:21.467Z,16.50
2023-01-29T22:07:24.517Z,7.30
2023-01-29T22:17:27.398Z,8.55
2023-01-29T22:27:33.086Z,8.33
2023-01-29T22:37:35.570Z,9.97
2023-01-29T22:47:38.508Z,10.18
2023-01-29T22:57:41.014Z,9.17
2023-01-29T23:07:43.682Z,10.20
2023-01-29T23:17:46.167Z,11.02
2023-01-29T23:27:48.828Z,9.23
2023-01-29T23:37:51.335Z,8.10
2023-01-29T23:47:53.909Z,8.07
2023-01-29T23:57:56.527Z,7.75
